createdAt,value
2023-03-08T00:01:17.587Z,100.00
2023-03-08T00:03:45.891Z,100.00
2023-03-08T00:06:17.521Z,100.00
2023-03-08T00:08:46.292Z,100.00
2023-03-08T00:11:14.848Z,100.00
2023-03-08T00:13:43.413Z,100.00
2023-03-08T00:16:13.560Z,100.00
2023-03-08T00:18:42.261Z,100.00
2023-03-08T00:21:11.854Z,100.00
2023-03-08T00:23:41.255Z,100.00
2023-03-08T00:26:09.465Z,100.00
2023-03-08T00:28:37.380Z,100.00
2023-03-08T00:31:06.584Z,100.00
2023-03-08T00:33:34.681Z,100.00
2023-03-08T00:36:04.376Z,100.00
2023-03-08T00:38:32.998Z,100.00
2023-03-08T00:41:02.391Z,100.00
2023-03-08T00:43:36.108Z,100.00
2023-03-08T00:46:07.304Z,100.00
2023-03-08T00:48:35.400Z,100.00
2023-03-08T00:51:06.230Z,100.00
2023-03-08T00:53:34.681Z,100.00
2023-03-08T00:56:04.224Z,100.00
2023-03-08T00:58:33.182Z,100.00
2023-03-08T01:01:01.672Z,100.00
2023-03-08T01:03:30.490Z,100.00
2023-03-08T01:05:59.275Z,100.00
2023-03-08T01:08:27.826Z,100.00
2023-03-08T01:10:58.195Z,100.00
2023-03-08T01:13:28.075Z,100.00
2023-03-08T01:15:57.152Z,100.00
2023-03-08T01:18:24.992Z,100.00
2023-03-08T01:20:56.856Z,100.00
2023-03-08T01:23:25.104Z,100.00
2023-03-08T01:25:59.341Z,100.00
2023-03-08T01:28:28.599Z,100.00
2023-03-08T01:31:02.300Z,100.00
2023-03-08T01:33:30.369Z,100.00
2023-03-08T01:36:00.328Z,100.00
2023-03-08T01:38:28.397Z,100.00
2023-03-08T01:40:57.491Z,100.00
2023-03-08T01:43:26.576Z,100.00
2023-03-08T01:46:12.877Z,100.00
2023-03-08T01:48:47.165Z,100.00
2023-03-08T01:51:21.515Z,100.00
2023-03-08T01:53:49.846Z,100.00
2023-03-08T01:56:20.868Z,100.00
2023-03-08T01:58:50.463Z,100.00
2023-03-08T02:01:19.430Z,100.00
2023-03-08T02:03:50.370Z,100.00
2023-03-08T02:06:21.523Z,100.00
2023-03-08T02:08:49.592Z,100.00
2023-03-08T02:11:18.316Z,100.00
2023-03-08T02:13:46.297Z,100.00
2023-03-08T02:16:16.119Z,100.00
2023-03-08T02:18:52.972Z,100.00
2023-03-08T02:21:22.491Z,100.00
2023-03-08T02:23:51.854Z,100.00
2023-03-08T02:26:20.189Z,100.00
2023-03-08T02:28:48.210Z,100.00
2023-03-08T02:31:16.682Z,100.00
2023-03-08T02:33:45.906Z,100.00
2023-03-08T02:36:13.624Z,100.00
2023-03-08T02:38:41.618Z,100.00
2023-03-08T02:41:10.948Z,100.00
2023-03-08T02:43:39.018Z,100.00
2023-03-08T02:46:07.268Z,100.00
2023-03-08T02:48:35.169Z,100.00
2023-03-08T02:51:03.053Z,100.00
2023-03-08T02:53:31.265Z,100.00
2023-03-08T02:56:00.940Z,100.00
2023-03-08T02:58:30.746Z,100.00
2023-03-08T03:00:58.733Z,100.00
2023-03-08T03:03:26.904Z,100.00
2023-03-08T03:05:54.845Z,100.00
2023-03-08T03:08:30.652Z,100.00
2023-03-08T03:10:58.659Z,100.00
2023-03-08T03:13:26.509Z,100.00
2023-03-08T03:15:55.990Z,100.00
2023-03-08T03:18:23.919Z,99.10
2023-03-08T03:20:51.799Z,98.70
2023-03-08T03:23:19.725Z,96.32
2023-03-08T03:25:53.419Z,97.45
2023-03-08T03:28:22.114Z,95.55
2023-03-08T03:30:50.813Z,93.71
2023-03-08T03:33:20.276Z,94.03
2023-03-08T03:35:48.395Z,93.16
2023-03-08T03:38:16.640Z,95.12
2023-03-08T03:40:46.300Z,95.82
2023-03-08T03:43:14.471Z,95.40
2023-03-08T03:45:42.435Z,97.20
2023-03-08T03:48:10.449Z,94.67
2023-03-08T03:50:40.204Z,93.75
2023-03-08T03:53:13.464Z,94.09
2023-03-08T03:55:41.596Z,92.23
2023-03-08T03:58:09.508Z,91.95
2023-03-08T04:00:38.327Z,92.24
2023-03-08T04:03:16.283Z,91.47
2023-03-08T04:05:46.040Z,90.08
2023-03-08T04:08:14.123Z,90.91
2023-03-08T04:10:43.059Z,90.99
2023-03-08T04:13:12.231Z,89.41
2023-03-08T04:15:41.478Z,88.61
2023-03-08T04:18:13.065Z,87.68
2023-03-08T04:20:46.574Z,87.10
2023-03-08T04:23:15.544Z,88.41
2023-03-08T04:25:45.233Z,88.49
2023-03-08T04:28:16.051Z,88.21
2023-03-08T04:30:46.368Z,89.41
2023-03-08T04:33:15.566Z,90.38
2023-03-08T04:35:49.647Z,91.01
2023-03-08T04:38:20.098Z,90.19
2023-03-08T04:41:11.840Z,91.26
2023-03-08T04:44:05.591Z,90.78
2023-03-08T04:46:39.693Z,90.13
2023-03-08T04:49:08.759Z,90.68
2023-03-08T04:51:43.444Z,91.28
2023-03-08T04:54:13.190Z,90.87
2023-03-08T04:56:47.086Z,91.86
2023-03-08T04:59:17.139Z,90.99
2023-03-08T05:01:45.502Z,90.77
2023-03-08T05:04:13.953Z,90.49
2023-03-08T05:06:44.353Z,91.58
2023-03-08T05:09:16.197Z,92.26
2023-03-08T05:11:46.324Z,92.93
2023-03-08T05:14:16.419Z,93.46
2023-03-08T05:16:44.401Z,93.82
2023-03-08T05:19:13.366Z,95.34
2023-03-08T05:21:49.600Z,97.22
2023-03-08T05:24:17.489Z,100.00
2023-03-08T05:26:45.896Z,100.00
2023-03-08T05:29:17.919Z,100.00
2023-03-08T05:31:46.928Z,100.00
2023-03-08T05:34:16.231Z,100.00
2023-03-08T05:36:49.162Z,100.00
2023-03-08T05:39:17.438Z,100.00
2023-03-08T05:41:57.777Z,100.00
2023-03-08T05:44:35.951Z,100.00
2023-03-08T05:47:05.683Z,100.00
2023-03-08T05:49:33.393Z,100.00
2023-03-08T05:52:02.509Z,100.00
2023-03-08T05:54:30.304Z,100.00
2023-03-08T05:57:02.904Z,100.00
2023-03-08T05:59:31.930Z,100.00
2023-03-08T06:02:03.407Z,100.00
2023-03-08T06:04:37.056Z,100.00
2023-03-08T06:07:06.333Z,100.00
2023-03-08T06:09:38.930Z,100.00
2023-03-08T06:12:09.424Z,100.00
2023-03-08T06:14:37.485Z,100.00
2023-03-08T06:17:05.697Z,100.00
2023-03-08T06:19:36.121Z,100.00
2023-03-08T06:22:03.852Z,100.00
2023-03-08T06:24:33.743Z,100.00
2023-03-08T06:27:03.433Z,100.00
2023-03-08T06:29:31.637Z,100.00
2023-03-08T06:32:01.662Z,100.00
2023-03-08T06:34:31.230Z,100.00
2023-03-08T06:37:00.113Z,100.00
2023-03-08T06:39:30.869Z,100.00
2023-03-08T06:42:02.733Z,100.00
2023-03-08T06:44:31.222Z,100.00
2023-03-08T06:46:58.797Z,100.00
2023-03-08T06:49:27.029Z,100.00
2023-03-08T06:51:55.531Z,100.00
2023-03-08T06:54:25.876Z,100.00
2023-03-08T06:56:55.703Z,100.00
2023-03-08T06:59:25.426Z,100.00
2023-03-08T07:01:53.009Z,100.00
2023-03-08T07:04:20.902Z,100.00
2023-03-08T07:06:48.622Z,100.00
2023-03-08T07:09:16.387Z,100.00
2023-03-08T07:11:44.002Z,100.00
2023-03-08T07:14:12.092Z,100.00
2023-03-08T07:16:41.004Z,100.00
2023-03-08T07:19:08.581Z,100.00
2023-03-08T07:21:37.264Z,100.00
2023-03-08T07:24:05.013Z,100.00
2023-03-08T07:26:33.036Z,100.00
2023-03-08T07:29:00.547Z,100.00
2023-03-08T07:31:29.101Z,100.00
2023-03-08T07:33:58.599Z,100.00
2023-03-08T07:36:26.367Z,100.00
2023-03-08T07:38:56.212Z,100.00
2023-03-08T07:41:23.831Z,100.00
2023-03-08T07:43:51.270Z,100.00
2023-03-08T07:46:20.920Z,100.00
2023-03-08T07:48:48.466Z,100.00
2023-03-08T07:51:17.888Z,100.00
2023-03-08T07:53:45.976Z,100.00
2023-03-08T07:56:13.426Z,100.00
2023-03-08T07:58:41.124Z,100.00
2023-03-08T08:01:09.524Z,100.00
2023-03-08T08:03:38.096Z,100.00
2023-03-08T08:06:07.530Z,100.00
2023-03-08T08:08:36.475Z,100.00
2023-03-08T08:11:10.759Z,100.00
2023-03-08T08:13:38.385Z,100.00
2023-03-08T08:16:07.794Z,100.00
2023-03-08T08:18:35.851Z,100.00
2023-03-08T08:21:03.820Z,100.00
2023-03-08T08:23:31.680Z,100.00
2023-03-08T08:26:00.709Z,100.00
2023-03-08T08:28:29.063Z,100.00
2023-03-08T08:30:57.445Z,100.00
2023-03-08T08:33:25.306Z,100.00
2023-03-08T08:35:53.250Z,100.00
2023-03-08T08:38:21.532Z,100.00
2023-03-08T08:40:49.394Z,100.00
2023-03-08T08:43:18.830Z,100.00
2023-03-08T08:45:47.686Z,100.00
2023-03-08T08:48:15.867Z,100.00
2023-03-08T08:50:44.272Z,100.00
2023-03-08T08:53:12.216Z,100.00
2023-03-08T08:55:41.922Z,100.00
2023-03-08T08:58:10.719Z,100.00
2023-03-08T09:00:40.448Z,100.00
2023-03-08T09:03:08.250Z,100.00
2023-03-08T09:05:39.069Z,100.00
2023-03-08T09:08:07.775Z,100.00
2023-03-08T09:10:37.008Z,100.00
2023-03-08T09:13:05.001Z,100.00
2023-03-08T09:15:33.032Z,100.00
2023-03-08T09:18:03.085Z,100.00
2023-03-08T09:20:31.332Z,100.00
2023-03-08T09:22:59.516Z,100.00
2023-03-08T09:25:27.251Z,100.00
2023-03-08T09:27:55.128Z,100.00
2023-03-08T09:30:23.377Z,100.00
2023-03-08T09:32:51.293Z,100.00
2023-03-08T09:35:20.814Z,100.00
2023-03-08T09:37:49.253Z,100.00
2023-03-08T09:40:21.625Z,100.00
2023-03-08T09:42:49.977Z,100.00
2023-03-08T09:45:21.057Z,100.00
2023-03-08T09:47:52.610Z,100.00
2023-03-08T09:50:29.539Z,100.00
2023-03-08T09:53:00.549Z,100.00
2023-03-08T09:55:30.872Z,100.00
2023-03-08T09:58:01.777Z,100.00
2023-03-08T10:00:33.109Z,100.00
2023-03-08T10:03:19.807Z,100.00
2023-03-08T10:05:52.795Z,100.00
2023-03-08T10:08:25.196Z,100.00
2023-03-08T10:10:56.610Z,100.00
2023-03-08T10:13:28.550Z,100.00
2023-03-08T10:15:59.852Z,100.00
2023-03-08T10:18:31.000Z,100.00
2023-03-08T10:21:01.983Z,100.00
2023-03-08T10:23:34.217Z,100.00
2023-03-08T10:26:03.038Z,100.00
2023-03-08T10:28:30.796Z,100.00
2023-03-08T10:31:01.732Z,100.00
2023-03-08T10:33:32.431Z,100.00
2023-03-08T10:36:03.823Z,100.00
2023-03-08T10:38:32.750Z,100.00
2023-03-08T10:41:01.677Z,100.00
2023-03-08T10:43:30.411Z,100.00
2023-03-08T10:45:59.812Z,100.00
2023-03-08T10:48:30.079Z,100.00
2023-03-08T10:51:03.024Z,100.00
2023-03-08T10:53:31.246Z,100.00
2023-03-08T10:55:59.820Z,100.00
2023-03-08T10:58:29.696Z,100.00
2023-03-08T11:00:58.939Z,100.00
2023-03-08T11:03:27.713Z,100.00
2023-03-08T11:05:57.946Z,100.00
2023-03-08T11:08:28.892Z,100.00
2023-03-08T11:11:08.789Z,100.00
2023-03-08T11:13:37.880Z,100.00
2023-03-08T11:16:09.771Z,100.00
2023-03-08T11:18:46.951Z,100.00
2023-03-08T11:21:18.308Z,100.00
2023-03-08T11:23:50.380Z,100.00
2023-03-08T11:26:21.631Z,100.00
2023-03-08T11:29:04.903Z,100.00
2023-03-08T11:31:38.128Z,100.00
2023-03-08T11:34:12.552Z,100.00
2023-03-08T11:36:45.185Z,100.00
2023-03-08T11:39:19.822Z,100.00
2023-03-08T11:41:52.647Z,100.00
2023-03-08T11:44:27.289Z,100.00
2023-03-08T11:47:05.595Z,100.00
2023-03-08T11:49:39.237Z,100.00
2023-03-08T11:52:11.462Z,100.00
2023-03-08T11:54:46.377Z,100.00
2023-03-08T11:57:15.355Z,100.00
2023-03-08T11:59:44.178Z,100.00
2023-03-08T12:02:14.807Z,100.00
2023-03-08T12:04:45.071Z,100.00
2023-03-08T12:07:17.246Z,100.00
2023-03-08T12:09:51.055Z,100.00
2023-03-08T12:12:23.639Z,100.00
2023-03-08T12:14:57.122Z,100.00
2023-03-08T12:17:27.333Z,100.00
2023-03-08T12:19:55.403Z,100.00
2023-03-08T12:22:28.203Z,100.00
2023-03-08T12:25:00.757Z,100.00
2023-03-08T12:27:31.799Z,100.00
2023-03-08T12:30:02.843Z,100.00
2023-03-08T12:32:31.387Z,100.00
2023-03-08T12:35:04.314Z,100.00
2023-03-08T12:37:32.700Z,100.00
2023-03-08T12:40:05.852Z,100.00
2023-03-08T12:42:35.705Z,100.00
2023-03-08T12:45:24.740Z,100.00
2023-03-08T12:47:58.407Z,100.00
2023-03-08T12:50:27.024Z,100.00
2023-03-08T12:52:56.504Z,100.00
2023-03-08T12:55:32.035Z,100.00
2023-03-08T12:58:01.927Z,100.00
2023-03-08T13:00:31.742Z,100.00
2023-03-08T13:03:01.095Z,100.00
2023-03-08T13:05:33.968Z,100.00
2023-03-08T13:08:09.429Z,100.00
2023-03-08T13:10:39.802Z,100.00
2023-03-08T13:13:38.067Z,100.00
2023-03-08T13:16:11.359Z,100.00
2023-03-08T13:18:39.950Z,100.00
2023-03-08T13:21:16.435Z,100.00
2023-03-08T13:23:48.277Z,100.00
2023-03-08T13:26:27.354Z,100.00
2023-03-08T13:28:57.405Z,100.00
2023-03-08T13:31:29.786Z,100.00
2023-03-08T13:33:58.459Z,100.00
2023-03-08T13:36:27.263Z,100.00
2023-03-08T13:39:00.029Z,100.00
2023-03-08T13:41:34.495Z,100.00
2023-03-08T13:44:03.247Z,100.00
2023-03-08T13:46:31.823Z,100.00
2023-03-08T13:49:01.784Z,100.00
2023-03-08T13:51:30.352Z,100.00
2023-03-08T13:53:58.576Z,100.00
2023-03-08T13:56:28.257Z,100.00
2023-03-08T13:58:59.028Z,100.00
2023-03-08T14:01:28.021Z,100.00
2023-03-08T14:03:58.509Z,100.00
2023-03-08T14:06:29.882Z,100.00
2023-03-08T14:09:00.641Z,100.00
2023-03-08T14:11:30.145Z,100.00
2023-03-08T14:14:00.772Z,100.00
2023-03-08T14:16:32.166Z,100.00
2023-03-08T14:19:00.894Z,100.00
2023-03-08T14:21:30.271Z,100.00
2023-03-08T14:23:59.297Z,100.00
2023-03-08T14:26:31.774Z,100.00
2023-03-08T14:29:12.288Z,100.00
2023-03-08T14:31:42.197Z,100.00
2023-03-08T14:34:19.820Z,100.00
2023-03-08T14:36:49.707Z,100.00
2023-03-08T14:39:19.471Z,100.00
2023-03-08T14:41:47.638Z,100.00
2023-03-08T14:44:20.846Z,100.00
2023-03-08T14:46:49.179Z,100.00
2023-03-08T14:49:22.097Z,100.00
2023-03-08T14:51:50.219Z,100.00
2023-03-08T14:54:23.615Z,100.00
2023-03-08T14:56:52.421Z,100.00
2023-03-08T14:59:27.804Z,100.00
2023-03-08T15:01:56.849Z,100.00
2023-03-08T15:04:26.893Z,100.00
2023-03-08T15:06:56.699Z,100.00
2023-03-08T15:09:26.351Z,100.00
2023-03-08T15:11:58.586Z,100.00
2023-03-08T15:14:28.810Z,100.00
2023-03-08T15:16:58.379Z,100.00
2023-03-08T15:19:26.259Z,100.00
2023-03-08T15:21:54.382Z,100.00
2023-03-08T15:24:23.144Z,100.00
2023-03-08T15:26:53.022Z,100.00
2023-03-08T15:29:26.462Z,100.00
2023-03-08T15:31:56.474Z,100.00
2023-03-08T15:34:27.484Z,100.00
2023-03-08T15:36:57.332Z,100.00
2023-03-08T15:39:25.634Z,100.00
2023-03-08T15:41:53.891Z,100.00
2023-03-08T15:44:21.990Z,100.00
2023-03-08T15:46:52.501Z,100.00
2023-03-08T15:49:22.460Z,100.00
2023-03-08T15:51:50.630Z,100.00
2023-03-08T15:54:18.808Z,100.00
2023-03-08T15:56:47.050Z,100.00
2023-03-08T15:59:14.809Z,100.00
2023-03-08T16:01:42.565Z,100.00
2023-03-08T16:04:13.355Z,100.00
2023-03-08T16:06:43.644Z,100.00
2023-03-08T16:09:11.425Z,100.00
2023-03-08T16:11:39.220Z,100.00
2023-03-08T16:14:06.851Z,100.00
2023-03-08T16:16:45.328Z,100.00
2023-03-08T16:19:13.698Z,100.00
2023-03-08T16:21:42.767Z,100.00
2023-03-08T16:24:11.542Z,100.00
2023-03-08T16:26:39.284Z,100.00
2023-03-08T16:29:06.981Z,100.00
2023-03-08T16:31:35.520Z,100.00
2023-03-08T16:34:03.655Z,100.00
2023-03-08T16:36:31.924Z,100.00
2023-03-08T16:39:00.963Z,100.00
2023-03-08T16:41:30.049Z,100.00
2023-03-08T16:43:58.142Z,100.00
2023-03-08T16:46:25.965Z,100.00
2023-03-08T16:48:55.155Z,100.00
2023-03-08T16:51:25.559Z,100.00
2023-03-08T16:53:53.335Z,100.00
2023-03-08T16:56:23.365Z,100.00
2023-03-08T16:58:51.244Z,100.00
2023-03-08T17:01:20.441Z,100.00
2023-03-08T17:03:48.848Z,100.00
2023-03-08T17:06:19.018Z,100.00
2023-03-08T17:08:49.303Z,100.00
2023-03-08T17:11:18.131Z,100.00
2023-03-08T17:13:51.038Z,100.00
2023-03-08T17:16:19.545Z,100.00
2023-03-08T17:18:47.690Z,100.00
2023-03-08T17:21:15.658Z,100.00
2023-03-08T17:23:44.468Z,100.00
2023-03-08T17:26:13.993Z,100.00
2023-03-08T17:28:42.552Z,100.00
2023-03-08T17:31:13.307Z,100.00
2023-03-08T17:33:42.058Z,100.00
2023-03-08T17:36:10.835Z,100.00
2023-03-08T17:38:39.129Z,100.00
2023-03-08T17:41:08.397Z,100.00
2023-03-08T17:43:38.065Z,100.00
2023-03-08T17:46:08.300Z,100.00
2023-03-08T17:48:38.268Z,100.00
2023-03-08T17:51:07.437Z,100.00
2023-03-08T17:53:37.762Z,100.00
2023-03-08T17:56:07.519Z,100.00
2023-03-08T17:58:35.411Z,100.00
2023-03-08T18:01:10.465Z,100.00
2023-03-08T18:03:40.115Z,100.00
2023-03-08T18:06:08.661Z,100.00
2023-03-08T18:08:37.134Z,100.00
2023-03-08T18:11:05.606Z,100.00
2023-03-08T18:13:33.566Z,100.00
2023-03-08T18:16:03.867Z,100.00
2023-03-08T18:18:31.982Z,100.00
2023-03-08T18:21:12.733Z,100.00
2023-03-08T18:23:43.492Z,100.00
2023-03-08T18:26:12.909Z,100.00
2023-03-08T18:28:41.866Z,100.00
2023-03-08T18:31:11.284Z,100.00
2023-03-08T18:33:40.559Z,100.00
2023-03-08T18:36:10.137Z,100.00
2023-03-08T18:38:38.218Z,100.00
2023-03-08T18:41:13.380Z,100.00
2023-03-08T18:43:41.733Z,100.00
2023-03-08T18:46:12.175Z,100.00
2023-03-08T18:48:40.539Z,100.00
2023-03-08T18:51:10.529Z,100.00
2023-03-08T18:53:38.824Z,100.00
2023-03-08T18:56:07.005Z,100.00
2023-03-08T18:58:36.330Z,100.00
2023-03-08T19:01:10.493Z,100.00
2023-03-08T19:03:38.715Z,100.00
2023-03-08T19:06:07.449Z,100.00
2023-03-08T19:08:38.939Z,100.00
2023-03-08T19:11:14.096Z,100.00
2023-03-08T19:13:42.919Z,100.00
2023-03-08T19:16:20.690Z,100.00
2023-03-08T19:18:49.728Z,100.00
2023-03-08T19:21:18.850Z,100.00
2023-03-08T19:23:48.714Z,100.00
2023-03-08T19:26:36.486Z,100.00
2023-03-08T19:29:05.889Z,100.00
2023-03-08T19:31:34.285Z,100.00
2023-03-08T19:34:04.719Z,100.00
2023-03-08T19:36:33.279Z,100.00
2023-03-08T19:39:03.003Z,100.00
2023-03-08T19:41:30.979Z,100.00
2023-03-08T19:44:00.171Z,100.00
2023-03-08T19:46:28.306Z,100.00
2023-03-08T19:48:56.412Z,100.00
2023-03-08T19:51:24.485Z,100.00
2023-03-08T19:53:52.086Z,100.00
2023-03-08T19:56:21.497Z,100.00
2023-03-08T19:58:49.566Z,100.00
2023-03-08T20:01:18.390Z,100.00
2023-03-08T20:03:47.018Z,100.00
2023-03-08T20:06:21.686Z,100.00
2023-03-08T20:08:49.789Z,100.00
2023-03-08T20:11:17.663Z,100.00
2023-03-08T20:13:46.989Z,100.00
2023-03-08T20:16:14.583Z,100.00
2023-03-08T20:18:43.329Z,100.00
2023-03-08T20:21:11.129Z,100.00
2023-03-08T20:23:39.108Z,100.00
2023-03-08T20:26:07.566Z,100.00
2023-03-08T20:28:35.277Z,100.00
2023-03-08T20:31:09.829Z,100.00
2023-03-08T20:33:42.324Z,100.00
2023-03-08T20:36:10.895Z,100.00
2023-03-08T20:38:38.917Z,100.00
2023-03-08T20:41:09.665Z,100.00
2023-03-08T20:43:37.332Z,100.00
2023-03-08T20:46:06.353Z,100.00
2023-03-08T20:48:35.973Z,100.00
2023-03-08T20:51:04.863Z,100.00
2023-03-08T20:53:33.443Z,100.00
2023-03-08T20:56:05.609Z,100.00
2023-03-08T20:58:33.276Z,100.00
2023-03-08T21:01:01.090Z,100.00
2023-03-08T21:03:29.061Z,100.00
2023-03-08T21:05:58.314Z,100.00
2023-03-08T21:08:26.253Z,100.00
2023-03-08T21:10:57.814Z,100.00
2023-03-08T21:13:25.833Z,100.00
2023-03-08T21:16:01.354Z,100.00
2023-03-08T21:18:29.609Z,100.00
2023-03-08T21:20:59.702Z,100.00
2023-03-08T21:23:27.892Z,100.00
2023-03-08T21:25:57.374Z,100.00
2023-03-08T21:32:27.799Z,100.00
2023-03-08T21:35:02.824Z,100.00
2023-03-08T21:37:32.140Z,100.00
2023-03-08T21:40:01.905Z,100.00
2023-03-08T21:42:32.853Z,100.00
2023-03-08T21:45:00.954Z,100.00
2023-03-08T21:47:28.936Z,100.00
2023-03-08T21:53:51.107Z,100.00
2023-03-08T21:56:20.205Z,100.00
2023-03-08T21:58:50.609Z,100.00
2023-03-08T22:01:19.363Z,100.00
2023-03-08T22:03:47.807Z,100.00
2023-03-08T22:06:15.931Z,100.00
2023-03-08T22:08:46.134Z,100.00
2023-03-08T22:11:22.131Z,100.00
2023-03-08T22:14:02.849Z,100.00
2023-03-08T22:16:31.478Z,100.00
2023-03-08T22:19:02.632Z,100.00
2023-03-08T22:21:31.323Z,100.00
2023-03-08T22:24:00.128Z,100.00
2023-03-08T22:26:30.388Z,100.00
2023-03-08T22:28:58.551Z,100.00
2023-03-08T22:31:29.579Z,100.00
2023-03-08T22:33:58.125Z,100.00
2023-03-08T22:36:26.486Z,100.00
2023-03-08T22:38:54.467Z,100.00
2023-03-08T22:41:23.360Z,100.00
2023-03-08T22:43:52.894Z,100.00
2023-03-08T22:46:22.311Z,100.00
2023-03-08T22:48:57.885Z,100.00
2023-03-08T22:51:30.919Z,100.00
2023-03-08T22:54:03.854Z,100.00
2023-03-08T22:56:34.024Z,100.00
2023-03-08T22:59:07.748Z,100.00
2023-03-08T23:01:36.346Z,100.00
2023-03-08T23:04:05.315Z,100.00
2023-03-08T23:06:33.757Z,100.00
2023-03-08T23:09:02.523Z,100.00
2023-03-08T23:11:31.530Z,100.00
2023-03-08T23:13:59.692Z,100.00
2023-03-08T23:16:29.264Z,100.00
2023-03-08T23:18:57.436Z,100.00
2023-03-08T23:21:27.420Z,100.00
2023-03-08T23:23:55.544Z,100.00
2023-03-08T23:26:27.166Z,100.00
2023-03-08T23:28:55.763Z,100.00
2023-03-08T23:31:24.461Z,100.00
2023-03-08T23:33:54.357Z,100.00
2023-03-08T23:36:24.492Z,100.00
2023-03-08T23:38:53.612Z,100.00
2023-03-08T23:41:22.090Z,100.00
2023-03-08T23:43:50.294Z,100.00
2023-03-08T23:46:19.843Z,100.00
2023-03-08T23:48:48.566Z,100.00
2023-03-08T23:51:19.761Z,100.00
2023-03-08T23:53:49.877Z,100.00
2023-03-08T23:56:19.753Z,100.00
2023-03-08T23:58:49.537Z,100.00
